createdAt,value
2023-02-20T00:00:34.695Z,99182.28
2023-02-20T00:03:01.535Z,99189.41
2023-02-20T00:05:28.155Z,99191.19
2023-02-20T00:07:54.820Z,99196.41
2023-02-20T00:10:21.633Z,99193.75
2023-02-20T00:12:48.365Z,99201.75
2023-02-20T00:15:16.563Z,99208.69
2023-02-20T00:17:44.574Z,99199.28
2023-02-20T00:20:11.866Z,99205.88
2023-02-20T00:22:38.579Z,99205.50
2023-02-20T00:25:05.352Z,99209.94
2023-02-20T00:27:31.992Z,99206.13
2023-02-20T00:29:58.653Z,99201.09
2023-02-20T00:32:25.422Z,99200.75
2023-02-20T00:34:52.924Z,99209.78
2023-02-20T00:37:19.598Z,99201.97
2023-02-20T00:39:46.189Z,99209.63
2023-02-20T00:42:13.062Z,99214.16
2023-02-20T00:44:39.635Z,99215.19
2023-02-20T00:47:06.413Z,99207.91
2023-02-20T00:49:33.103Z,99207.03
2023-02-20T00:52:09.525Z,99199.19
2023-02-20T00:54:36.216Z,99203.34
2023-02-20T00:57:02.841Z,99197.44
2023-02-20T00:59:29.572Z,99194.34
2023-02-20T01:01:56.298Z,99172.22
2023-02-20T01:04:23.015Z,99206.53
2023-02-20T01:06:49.755Z,99204.88
2023-02-20T01:09:16.540Z,99216.66
2023-02-20T01:11:45.620Z,99214.91
2023-02-20T01:14:13.606Z,99217.63
2023-02-20T01:16:48.336Z,99215.63
2023-02-20T01:19:15.279Z,99223.34
2023-02-20T01:21:42.039Z,99218.47
2023-02-20T01:24:09.423Z,99216.44
2023-02-20T01:26:36.467Z,99220.97
2023-02-20T01:29:04.642Z,99224.69
2023-02-20T01:31:31.402Z,99219.56
2023-02-20T01:33:59.395Z,99228.84
2023-02-20T01:36:27.493Z,99226.44
2023-02-20T01:38:54.451Z,99227.25
2023-02-20T01:41:23.347Z,99228.19
2023-02-20T01:43:50.074Z,99212.03
2023-02-20T01:46:29.088Z,99226.59
2023-02-20T01:49:02.300Z,99232.78
2023-02-20T01:51:35.211Z,99233.75
2023-02-20T01:54:03.301Z,99242.28
2023-02-20T01:56:32.150Z,99238.78
2023-02-20T01:58:59.014Z,99245.41
2023-02-20T02:01:25.704Z,99241.81
2023-02-20T02:04:00.163Z,99241.03
2023-02-20T02:06:28.532Z,99236.16
2023-02-20T02:08:59.138Z,99232.53
2023-02-20T02:11:27.648Z,99227.63
2023-02-20T02:13:55.776Z,99233.84
2023-02-20T02:16:45.552Z,99229.44
2023-02-20T02:19:50.693Z,99230.41
2023-02-20T02:22:49.439Z,99221.19
2023-02-20T02:25:32.911Z,99222.94
2023-02-20T02:28:22.893Z,99222.03
2023-02-20T02:31:23.712Z,99223.84
2023-02-20T02:33:53.164Z,99224.66
2023-02-20T02:36:50.629Z,99231.47
2023-02-20T02:39:20.283Z,99234.19
2023-02-20T02:42:04.154Z,99237.63
2023-02-20T02:44:39.735Z,99241.81
2023-02-20T02:47:11.678Z,99238.25
2023-02-20T02:49:48.427Z,99241.50
2023-02-20T02:52:36.281Z,99242.69
2023-02-20T02:55:03.585Z,99246.06
2023-02-20T02:57:32.285Z,99247.00
2023-02-20T03:00:26.791Z,99245.34
2023-02-20T03:02:59.524Z,99244.34
2023-02-20T03:05:40.263Z,99239.34
2023-02-20T03:08:31.417Z,99246.13
2023-02-20T03:11:05.547Z,99239.34
2023-02-20T03:13:58.649Z,99248.84
2023-02-20T03:16:32.474Z,99246.66
2023-02-20T03:19:02.757Z,99254.09
2023-02-20T03:21:32.655Z,99257.41
2023-02-20T03:24:01.860Z,99263.28
2023-02-20T03:26:37.856Z,99257.47
2023-02-20T03:29:15.737Z,99258.41
2023-02-20T03:32:11.292Z,99257.03
2023-02-20T03:34:58.985Z,99268.84
2023-02-20T03:37:46.935Z,99276.31
2023-02-20T03:40:35.112Z,99289.22
2023-02-20T03:43:21.844Z,99283.25
2023-02-20T03:45:49.892Z,99287.44
2023-02-20T03:48:40.473Z,99292.53
2023-02-20T03:51:11.581Z,99285.53
2023-02-20T03:53:48.439Z,99286.59
2023-02-20T03:56:31.552Z,99285.66
2023-02-20T03:59:06.496Z,99294.31
2023-02-20T04:01:37.474Z,99295.91
2023-02-20T04:04:07.051Z,99291.28
2023-02-20T04:06:36.640Z,99299.66
2023-02-20T04:09:14.195Z,99306.44
2023-02-20T04:11:52.280Z,99304.28
2023-02-20T04:14:22.307Z,99322.72
2023-02-20T04:17:00.627Z,99305.03
2023-02-20T04:19:27.905Z,99308.16
2023-02-20T04:22:03.021Z,99313.16
2023-02-20T04:24:41.978Z,99327.00
2023-02-20T04:27:09.543Z,99323.13
2023-02-20T04:29:41.901Z,99333.03
2023-02-20T04:32:08.748Z,99330.50
2023-02-20T04:34:37.334Z,99334.09
2023-02-20T04:37:13.151Z,99339.03
2023-02-20T04:39:40.995Z,99349.09
2023-02-20T04:42:07.926Z,99348.25
2023-02-20T04:44:35.479Z,99340.66
2023-02-20T04:47:07.515Z,99349.03
2023-02-20T04:49:35.747Z,99350.63
2023-02-20T04:52:05.291Z,99340.53
2023-02-20T04:54:32.661Z,99348.28
2023-02-20T04:57:00.726Z,99352.56
2023-02-20T04:59:27.528Z,99360.94
2023-02-20T05:01:54.872Z,99360.06
2023-02-20T05:04:22.761Z,99324.09
2023-02-20T05:06:52.837Z,99365.25
2023-02-20T05:09:20.938Z,99376.34
2023-02-20T05:11:47.619Z,99377.19
2023-02-20T05:14:14.753Z,99383.16
2023-02-20T05:16:42.809Z,99379.97
2023-02-20T05:19:09.477Z,99381.78
2023-02-20T05:21:54.548Z,99386.06
2023-02-20T05:24:21.973Z,99389.28
2023-02-20T05:26:48.609Z,99396.72
2023-02-20T05:29:15.393Z,99398.31
2023-02-20T05:31:42.721Z,99389.88
2023-02-20T05:34:09.519Z,99391.38
2023-02-20T05:36:36.659Z,99391.47
2023-02-20T05:39:04.624Z,99399.03
2023-02-20T05:41:32.036Z,99390.56
2023-02-20T05:43:59.911Z,99400.00
2023-02-20T05:46:27.629Z,99400.13
2023-02-20T05:48:55.080Z,99405.09
2023-02-20T05:51:23.855Z,99411.88
2023-02-20T05:53:50.902Z,99402.34
2023-02-20T05:56:18.275Z,99410.75
2023-02-20T05:58:45.031Z,99409.06
2023-02-20T06:01:24.118Z,99410.63
2023-02-20T06:03:51.609Z,99411.44
2023-02-20T06:06:19.008Z,99425.97
2023-02-20T06:08:46.391Z,99430.22
2023-02-20T06:11:14.279Z,99442.84
2023-02-20T06:13:45.445Z,99438.44
2023-02-20T06:16:13.084Z,99451.16
2023-02-20T06:18:41.476Z,99443.47
2023-02-20T06:21:09.896Z,99441.69
2023-02-20T06:23:38.096Z,99453.25
2023-02-20T06:26:06.349Z,99449.06
2023-02-20T06:28:33.607Z,99455.78
2023-02-20T06:31:02.016Z,99450.66
2023-02-20T06:33:29.537Z,99456.59
2023-02-20T06:35:56.349Z,99470.19
2023-02-20T06:38:24.123Z,99475.34
2023-02-20T06:40:51.137Z,99475.28
2023-02-20T06:43:17.788Z,99485.44
2023-02-20T06:45:45.189Z,99486.16
2023-02-20T06:48:11.924Z,99487.09
2023-02-20T06:50:38.503Z,99489.59
2023-02-20T06:53:05.161Z,99486.97
2023-02-20T06:55:32.813Z,99492.31
2023-02-20T06:57:59.776Z,99497.22
2023-02-20T07:00:26.964Z,99505.63
2023-02-20T07:02:53.746Z,99503.19
2023-02-20T07:05:20.571Z,99507.59
2023-02-20T07:07:47.316Z,99516.88
2023-02-20T07:10:13.914Z,99511.63
2023-02-20T07:12:40.592Z,99511.50
2023-02-20T07:15:08.673Z,99520.94
2023-02-20T07:17:35.305Z,99514.94
2023-02-20T07:20:02.099Z,99520.94
2023-02-20T07:22:28.757Z,99526.91
2023-02-20T07:24:55.880Z,99528.53
2023-02-20T07:27:22.851Z,99530.91
2023-02-20T07:29:51.101Z,99529.28
2023-02-20T07:32:20.622Z,99524.38
2023-02-20T07:35:01.426Z,99530.94
2023-02-20T07:37:31.806Z,99531.75
2023-02-20T07:39:58.442Z,99535.94
2023-02-20T07:42:25.165Z,99536.03
2023-02-20T07:44:59.636Z,99505.88
2023-02-20T07:47:26.490Z,99532.72
2023-02-20T07:49:53.073Z,99529.47
2023-02-20T07:52:19.783Z,99535.16
2023-02-20T07:54:46.421Z,99527.59
2023-02-20T07:57:15.501Z,99522.53
2023-02-20T07:59:42.270Z,99519.84
2023-02-20T08:02:08.891Z,99523.31
2023-02-20T08:04:35.471Z,99531.72
2023-02-20T08:07:02.155Z,99529.81
2023-02-20T08:09:28.794Z,99530.69
2023-02-20T08:11:55.924Z,99533.13
2023-02-20T08:14:22.656Z,99525.38
2023-02-20T08:16:49.330Z,99534.69
2023-02-20T08:19:16.002Z,99525.19
2023-02-20T08:21:42.705Z,99528.53
2023-02-20T08:24:09.288Z,99524.22
2023-02-20T08:26:42.397Z,99530.06
2023-02-20T08:29:09.065Z,99523.28
2023-02-20T08:31:35.894Z,99528.34
2023-02-20T08:34:02.675Z,99527.41
2023-02-20T08:36:29.469Z,99521.41
2023-02-20T08:38:57.277Z,99512.13
2023-02-20T08:41:24.025Z,99513.78
2023-02-20T08:43:50.700Z,99520.50
2023-02-20T08:46:17.489Z,99518.81
2023-02-20T08:48:45.111Z,99521.31
2023-02-20T08:51:11.904Z,99517.81
2023-02-20T08:53:39.492Z,99517.81
2023-02-20T08:56:07.393Z,99516.06
2023-02-20T08:58:34.028Z,99518.56
2023-02-20T09:01:00.685Z,99521.09
2023-02-20T09:03:27.530Z,99519.28
2023-02-20T09:05:54.179Z,99514.03
2023-02-20T09:08:20.857Z,99525.72
2023-02-20T09:10:48.167Z,99522.22
2023-02-20T09:13:15.084Z,99512.19
2023-02-20T09:15:41.743Z,99525.56
2023-02-20T09:18:13.044Z,99511.19
2023-02-20T09:20:41.077Z,99513.72
2023-02-20T09:23:08.504Z,99515.19
2023-02-20T09:25:36.056Z,99514.28
2023-02-20T09:28:02.876Z,99514.88
2023-02-20T09:30:29.686Z,99517.44
2023-02-20T09:32:56.479Z,99512.25
2023-02-20T09:35:29.057Z,99510.34
2023-02-20T09:37:56.193Z,99498.28
2023-02-20T09:40:29.381Z,99514.97
2023-02-20T09:43:33.689Z,99522.22
2023-02-20T09:46:06.365Z,99519.66
2023-02-20T09:48:38.852Z,99522.03
2023-02-20T09:51:11.100Z,99510.81
2023-02-20T09:54:03.204Z,99508.25
2023-02-20T09:56:34.742Z,99506.50
2023-02-20T09:59:16.820Z,99510.75
2023-02-20T10:01:58.158Z,99509.81
2023-02-20T10:04:37.379Z,99505.69
2023-02-20T10:07:17.455Z,99491.38
2023-02-20T10:09:44.314Z,99504.13
2023-02-20T10:12:15.097Z,99509.63
2023-02-20T10:15:06.249Z,99505.81
2023-02-20T10:17:39.037Z,99506.28
2023-02-20T10:20:20.252Z,99502.44
2023-02-20T10:22:58.996Z,99498.66
2023-02-20T10:25:31.821Z,99494.22
2023-02-20T10:28:09.623Z,99491.50
2023-02-20T10:30:54.709Z,99490.47
2023-02-20T10:33:29.908Z,99486.88
2023-02-20T10:36:08.848Z,99502.63
2023-02-20T10:38:50.693Z,99480.06
2023-02-20T10:41:23.048Z,99485.13
2023-02-20T10:44:05.553Z,99479.19
2023-02-20T10:46:48.152Z,99485.78
2023-02-20T10:49:29.637Z,99482.47
2023-02-20T10:52:01.212Z,99483.00
2023-02-20T10:54:36.374Z,99476.94
2023-02-20T10:57:08.556Z,99480.06
2023-02-20T10:59:50.809Z,99473.09
2023-02-20T11:02:23.089Z,99472.25
2023-02-20T11:04:57.633Z,99467.72
2023-02-20T11:07:24.590Z,99455.56
2023-02-20T11:09:51.160Z,99457.56
2023-02-20T11:12:48.765Z,99450.44
2023-02-20T11:15:29.043Z,99446.81
2023-02-20T11:17:56.998Z,99437.84
2023-02-20T11:20:32.838Z,99435.75
2023-02-20T11:23:01.562Z,99434.09
2023-02-20T11:25:38.942Z,99433.19
2023-02-20T11:28:20.955Z,99425.94
2023-02-20T11:31:02.900Z,99418.97
2023-02-20T11:33:48.075Z,99414.19
2023-02-20T11:36:22.901Z,99404.81
2023-02-20T11:38:57.967Z,99406.06
2023-02-20T11:41:32.333Z,99405.03
2023-02-20T11:44:35.791Z,99398.00
2023-02-20T11:47:31.773Z,99389.69
2023-02-20T11:50:19.826Z,99384.06
2023-02-20T11:53:04.500Z,99384.53
2023-02-20T11:55:32.133Z,99378.75
2023-02-20T11:57:58.755Z,99378.63
2023-02-20T12:00:47.849Z,99375.03
2023-02-20T12:03:21.843Z,99371.63
2023-02-20T12:05:49.873Z,99372.78
2023-02-20T12:08:37.600Z,99367.03
2023-02-20T12:11:15.697Z,99362.78
2023-02-20T12:13:44.807Z,99350.88
2023-02-20T12:16:39.136Z,99350.44
2023-02-20T12:19:16.215Z,99347.75
2023-02-20T12:21:45.967Z,99330.44
2023-02-20T12:24:51.660Z,99336.81
2023-02-20T12:27:43.377Z,99322.44
2023-02-20T12:30:44.117Z,99316.03
2023-02-20T12:33:40.410Z,99308.34
2023-02-20T12:36:27.531Z,99297.91
2023-02-20T12:39:02.723Z,99304.41
2023-02-20T12:42:06.249Z,99296.31
2023-02-20T12:44:57.448Z,99285.28
2023-02-20T12:47:45.306Z,99281.59
2023-02-20T12:50:36.833Z,99272.28
2023-02-20T12:53:31.310Z,99264.75
2023-02-20T12:56:21.525Z,99259.19
2023-02-20T12:58:58.148Z,99252.81
2023-02-20T13:01:38.364Z,99253.69
2023-02-20T13:04:19.649Z,99250.25
2023-02-20T13:07:03.080Z,99244.16
2023-02-20T13:09:36.560Z,99230.09
2023-02-20T13:12:11.210Z,99227.91
2023-02-20T13:14:56.611Z,99225.50
2023-02-20T13:17:32.219Z,99224.84
2023-02-20T13:20:21.757Z,99220.28
2023-02-20T13:23:06.329Z,99218.69
2023-02-20T13:25:39.551Z,99211.13
2023-02-20T13:28:12.325Z,99209.16
2023-02-20T13:30:40.562Z,99199.53
2023-02-20T13:33:22.206Z,99194.97
2023-02-20T13:35:56.815Z,99196.56
2023-02-20T13:38:26.671Z,99188.59
2023-02-20T13:40:56.401Z,99190.03
2023-02-20T13:43:23.086Z,99184.31
2023-02-20T13:46:17.538Z,99183.97
2023-02-20T13:48:49.942Z,99169.03
2023-02-20T13:51:16.762Z,99167.88
2023-02-20T13:53:49.071Z,99170.03
2023-02-20T13:56:17.412Z,99161.66
2023-02-20T13:58:45.826Z,99146.34
2023-02-20T14:01:12.604Z,99153.84
2023-02-20T14:03:39.386Z,99155.75
2023-02-20T14:06:09.160Z,99144.34
2023-02-20T14:08:38.619Z,99144.19
2023-02-20T14:11:07.647Z,99143.03
2023-02-20T14:13:40.266Z,99134.97
2023-02-20T14:16:32.204Z,99140.13
2023-02-20T14:19:02.490Z,99136.28
2023-02-20T14:21:30.143Z,99132.28
2023-02-20T14:23:57.481Z,99131.63
2023-02-20T14:26:31.823Z,99134.69
2023-02-20T14:29:00.134Z,99124.13
2023-02-20T14:31:33.816Z,99122.59
2023-02-20T14:34:21.865Z,99127.66
2023-02-20T14:37:16.962Z,99134.06
2023-02-20T14:39:58.154Z,99122.34
2023-02-20T14:42:25.877Z,99122.41
2023-02-20T14:45:00.770Z,99120.41
2023-02-20T14:47:27.546Z,99109.53
2023-02-20T14:49:54.169Z,99113.59
2023-02-20T14:52:24.284Z,99113.66
2023-02-20T14:55:06.996Z,99106.78
2023-02-20T14:57:34.784Z,99105.78
2023-02-20T15:00:16.608Z,99108.47
2023-02-20T15:02:48.181Z,99102.88
2023-02-20T15:05:21.171Z,99110.06
2023-02-20T15:07:48.093Z,99113.22
2023-02-20T15:10:32.829Z,99109.41
2023-02-20T15:13:07.221Z,99107.47
2023-02-20T15:15:44.810Z,99109.72
2023-02-20T15:18:17.746Z,99105.13
2023-02-20T15:20:49.279Z,99101.91
2023-02-20T15:23:16.203Z,99107.22
2023-02-20T15:25:44.286Z,99103.00
2023-02-20T15:28:19.822Z,99112.38
2023-02-20T15:31:06.735Z,99113.63
2023-02-20T15:33:39.573Z,99112.72
2023-02-20T15:36:07.441Z,99110.22
2023-02-20T15:38:35.690Z,99116.03
2023-02-20T15:41:04.227Z,99113.81
2023-02-20T15:43:47.132Z,99106.59
2023-02-20T15:46:17.541Z,99112.47
2023-02-20T15:48:44.513Z,99112.06
2023-02-20T15:51:12.206Z,99116.75
2023-02-20T15:53:39.677Z,99114.84
2023-02-20T15:56:06.555Z,99109.59
2023-02-20T15:58:38.947Z,99111.34
2023-02-20T16:01:06.896Z,99119.47
2023-02-20T16:03:45.221Z,99118.44
2023-02-20T16:06:17.819Z,99118.06
2023-02-20T16:08:45.367Z,99115.00
2023-02-20T16:11:12.714Z,99110.31
2023-02-20T16:13:43.328Z,99118.34
2023-02-20T16:16:25.225Z,99120.00
2023-02-20T16:18:55.023Z,99124.63
2023-02-20T16:21:23.472Z,99115.41
2023-02-20T16:23:50.383Z,99112.66
2023-02-20T16:26:19.319Z,99119.66
2023-02-20T16:28:59.191Z,99118.34
2023-02-20T16:32:00.889Z,99125.97
2023-02-20T16:34:33.087Z,99113.97
2023-02-20T16:37:01.382Z,99122.75
2023-02-20T16:39:27.974Z,99128.47
2023-02-20T16:41:57.799Z,99130.47
2023-02-20T16:44:40.923Z,99122.78
2023-02-20T16:47:18.843Z,99122.38
2023-02-20T16:49:46.461Z,99129.22
2023-02-20T16:52:37.644Z,99124.53
2023-02-20T16:55:28.058Z,99131.19
2023-02-20T16:57:55.601Z,99136.91
2023-02-20T17:00:27.790Z,99140.03
2023-02-20T17:02:55.101Z,99138.38
2023-02-20T17:05:25.649Z,99137.28
2023-02-20T17:07:52.627Z,99140.66
2023-02-20T17:10:19.452Z,99142.38
2023-02-20T17:12:46.440Z,99149.78
2023-02-20T17:15:16.530Z,99153.25
2023-02-20T17:17:43.891Z,99150.75
2023-02-20T17:20:15.851Z,99129.31
2023-02-20T17:22:44.287Z,99158.31
2023-02-20T17:25:16.818Z,99152.63
2023-02-20T17:27:43.482Z,99148.72
2023-02-20T17:30:10.943Z,99155.69
2023-02-20T17:32:37.631Z,99160.03
2023-02-20T17:35:05.093Z,99163.09
2023-02-20T17:37:34.302Z,99162.56
2023-02-20T17:40:01.948Z,99166.75
2023-02-20T17:42:29.068Z,99158.34
2023-02-20T17:44:55.702Z,99164.19
2023-02-20T17:47:23.235Z,99163.97
2023-02-20T17:49:53.365Z,99162.34
2023-02-20T17:52:20.537Z,99171.69
2023-02-20T17:54:49.131Z,99165.94
2023-02-20T17:57:20.983Z,99176.50
2023-02-20T17:59:51.249Z,99178.94
2023-02-20T18:02:18.943Z,99181.31
2023-02-20T18:04:46.048Z,99179.59
2023-02-20T18:07:14.017Z,99181.31
2023-02-20T18:09:40.681Z,99182.59
2023-02-20T18:12:07.935Z,99187.63
2023-02-20T18:14:34.625Z,99184.13
2023-02-20T18:17:01.444Z,99178.19
2023-02-20T18:19:28.084Z,99180.00
2023-02-20T18:21:54.796Z,99188.69
2023-02-20T18:24:26.265Z,99191.84
2023-02-20T18:26:54.298Z,99176.44
2023-02-20T18:29:21.759Z,99190.16
2023-02-20T18:31:49.723Z,99186.75
2023-02-20T18:34:17.051Z,99185.28
2023-02-20T18:36:43.850Z,99186.09
2023-02-20T18:39:11.029Z,99182.25
2023-02-20T18:41:37.990Z,99181.47
2023-02-20T18:44:05.388Z,99188.06
2023-02-20T18:46:34.575Z,99184.69
2023-02-20T18:49:04.719Z,99191.84
2023-02-20T18:51:34.581Z,99188.59
2023-02-20T18:54:02.027Z,99184.28
2023-02-20T18:56:28.624Z,99174.28
2023-02-20T18:58:55.433Z,99180.28
2023-02-20T19:01:23.248Z,99174.22
2023-02-20T19:03:53.272Z,99176.00
2023-02-20T19:06:40.646Z,99164.69
2023-02-20T19:09:08.293Z,99170.03
2023-02-20T19:11:34.857Z,99177.31
2023-02-20T19:14:01.846Z,99165.66
2023-02-20T19:16:28.689Z,99168.50
2023-02-20T19:18:55.451Z,99171.72
2023-02-20T19:21:22.610Z,99170.78
2023-02-20T19:23:49.936Z,99167.59
2023-02-20T19:26:16.745Z,99178.59
2023-02-20T19:28:43.725Z,99170.25
2023-02-20T19:31:12.158Z,99170.72
2023-02-20T19:33:39.514Z,99178.47
2023-02-20T19:36:09.873Z,99176.28
2023-02-20T19:38:38.732Z,99170.22
2023-02-20T19:41:05.581Z,99179.84
2023-02-20T19:43:32.381Z,99178.28
2023-02-20T19:45:59.251Z,99173.47
2023-02-20T19:48:28.035Z,99171.97
2023-02-20T19:50:56.171Z,99179.72
2023-02-20T19:53:23.450Z,99180.22
2023-02-20T19:55:54.283Z,99182.66
2023-02-20T19:58:21.502Z,99190.75
2023-02-20T20:00:48.182Z,99190.91
2023-02-20T20:03:15.077Z,99191.63
2023-02-20T20:05:41.715Z,99199.97
2023-02-20T20:08:08.476Z,99197.41
2023-02-20T20:10:35.400Z,99194.97
2023-02-20T20:13:02.603Z,99191.63
2023-02-20T20:15:29.568Z,99163.34
2023-02-20T20:18:02.309Z,99201.09
2023-02-20T20:20:31.875Z,99194.25
2023-02-20T20:23:01.726Z,99196.09
2023-02-20T20:25:28.472Z,99197.38
2023-02-20T20:27:56.197Z,99192.25
2023-02-20T20:30:26.065Z,99187.13
2023-02-20T20:32:52.996Z,99194.69
2023-02-20T20:35:22.044Z,99188.56
2023-02-20T20:37:48.908Z,99187.81
2023-02-20T20:40:16.995Z,99197.53
2023-02-20T20:42:43.859Z,99183.78
2023-02-20T20:45:12.571Z,99178.94
2023-02-20T20:47:40.471Z,99186.09
2023-02-20T20:50:07.238Z,99188.81
2023-02-20T20:52:33.832Z,99188.53
2023-02-20T20:55:04.518Z,99185.28
2023-02-20T20:57:35.557Z,99188.78
2023-02-20T21:00:05.716Z,99185.22
2023-02-20T21:02:32.464Z,99183.53
2023-02-20T21:05:09.754Z,99182.81
2023-02-20T21:07:37.774Z,99180.34
2023-02-20T21:10:04.710Z,99187.38
2023-02-20T21:12:31.410Z,99191.81
2023-02-20T21:14:58.071Z,99190.13
2023-02-20T21:17:25.019Z,99189.66
2023-02-20T21:19:51.650Z,99203.03
2023-02-20T21:22:18.335Z,99183.53
2023-02-20T21:24:45.060Z,99197.19
2023-02-20T21:27:11.727Z,99191.53
2023-02-20T21:29:38.331Z,99189.03
2023-02-20T21:32:05.059Z,99184.97
2023-02-20T21:34:31.723Z,99192.72
2023-02-20T21:36:58.442Z,99192.72
2023-02-20T21:39:25.138Z,99192.16
2023-02-20T21:42:11.063Z,99192.94
2023-02-20T21:44:39.631Z,99181.97
2023-02-20T21:47:09.904Z,99188.06
2023-02-20T21:49:43.022Z,99180.63
2023-02-20T21:52:09.698Z,99187.31
2023-02-20T21:54:36.344Z,99177.22
2023-02-20T21:57:03.115Z,99181.44
2023-02-20T21:59:29.630Z,99175.63
2023-02-20T22:01:56.678Z,99171.50
2023-02-20T22:04:24.642Z,99169.75
2023-02-20T22:07:09.814Z,99166.75
2023-02-20T22:09:55.213Z,99173.50
2023-02-20T22:12:40.340Z,99154.44
2023-02-20T22:15:26.316Z,99158.03
2023-02-20T22:18:11.479Z,99163.72
2023-02-20T22:20:56.949Z,99151.84
2023-02-20T22:23:42.155Z,99156.16
2023-02-20T22:26:27.580Z,99152.13
2023-02-20T22:29:12.808Z,99165.03
2023-02-20T22:31:58.209Z,99155.06
2023-02-20T22:34:43.486Z,99156.59
2023-02-20T22:37:28.689Z,99149.13
2023-02-20T22:40:13.856Z,99144.97
2023-02-20T22:42:59.130Z,99143.94
2023-02-20T22:45:44.367Z,99132.28
2023-02-20T22:48:29.689Z,99135.72
2023-02-20T22:51:15.068Z,99127.19
2023-02-20T22:54:00.485Z,99127.03
2023-02-20T22:56:45.633Z,99129.84
2023-02-20T22:59:30.877Z,99121.47
2023-02-20T23:02:16.121Z,99122.41
2023-02-20T23:05:01.521Z,99123.25
2023-02-20T23:07:47.311Z,99121.88
2023-02-20T23:10:32.674Z,99124.38
2023-02-20T23:13:17.955Z,99115.09
2023-02-20T23:16:03.304Z,99107.38
2023-02-20T23:18:48.712Z,99106.63
2023-02-20T23:21:34.549Z,99106.44
2023-02-20T23:24:19.783Z,99103.75
2023-02-20T23:27:10.148Z,99099.25
2023-02-20T23:29:55.450Z,99097.47
2023-02-20T23:32:41.014Z,99095.78
2023-02-20T23:35:27.182Z,99100.59
2023-02-20T23:38:12.557Z,99098.00
2023-02-20T23:40:57.663Z,99089.47
2023-02-20T23:43:42.885Z,99093.00
2023-02-20T23:46:28.188Z,99085.88
2023-02-20T23:49:13.524Z,99083.44
2023-02-20T23:52:00.819Z,99074.47
2023-02-20T23:54:50.188Z,99074.78
2023-02-20T23:57:35.309Z,99072.34
